createdAt,value
2023-02-24T00:02:04.119Z,13.77
2023-02-24T00:04:40.290Z,10.23
2023-02-24T00:07:08.899Z,10.83
2023-02-24T00:09:37.231Z,10.03
2023-02-24T00:12:09.134Z,8.47
2023-02-24T00:14:38.129Z,7.57
2023-02-24T00:17:08.372Z,8.27
2023-02-24T00:19:36.565Z,9.33
2023-02-24T00:22:05.604Z,8.47
2023-02-24T00:24:32.680Z,11.30
2023-02-24T00:27:02.412Z,14.20
2023-02-24T00:29:30.186Z,18.40
2023-02-24T00:32:12.590Z,12.23
2023-02-24T00:34:40.227Z,13.93
2023-02-24T00:37:07.307Z,17.43
2023-02-24T00:39:36.575Z,14.87
2023-02-24T00:42:06.314Z,14.33
2023-02-24T00:44:36.621Z,10.43
2023-02-24T00:47:05.278Z,8.73
2023-02-24T00:49:35.991Z,8.23
2023-02-24T00:52:04.818Z,10.30
2023-02-24T00:54:32.443Z,10.10
2023-02-24T00:57:02.946Z,13.57
2023-02-24T00:59:30.101Z,12.33
2023-02-24T01:01:57.011Z,10.60
2023-02-24T01:04:23.994Z,11.90
2023-02-24T01:07:00.227Z,16.57
2023-02-24T01:09:30.714Z,18.10
2023-02-24T01:12:16.747Z,15.43
2023-02-24T01:14:47.746Z,17.80
2023-02-24T01:17:16.278Z,19.90
2023-02-24T01:19:44.787Z,17.50
2023-02-24T01:22:15.103Z,15.00
2023-02-24T01:24:44.153Z,13.30
2023-02-24T01:27:17.475Z,17.30
2023-02-24T01:29:45.231Z,16.73
2023-02-24T01:32:19.369Z,16.37
2023-02-24T01:34:47.091Z,17.43
2023-02-24T01:37:17.151Z,14.87
2023-02-24T01:39:45.275Z,13.43
2023-02-24T01:42:21.314Z,15.47
2023-02-24T01:44:48.171Z,11.80
2023-02-24T01:47:18.561Z,10.87
2023-02-24T01:49:47.896Z,11.27
2023-02-24T01:52:19.137Z,8.17
2023-02-24T01:55:10.897Z,9.67
2023-02-24T01:57:39.052Z,11.23
2023-02-24T02:00:20.306Z,11.40
2023-02-24T02:02:53.116Z,16.80
2023-02-24T02:05:21.176Z,13.57
2023-02-24T02:07:50.230Z,13.67
2023-02-24T02:10:18.669Z,11.80
2023-02-24T02:12:46.346Z,19.07
2023-02-24T02:15:18.805Z,11.67
2023-02-24T02:17:48.404Z,11.17
2023-02-24T02:20:27.117Z,10.03
2023-02-24T02:23:18.559Z,12.43
2023-02-24T02:26:10.971Z,10.17
2023-02-24T02:29:02.861Z,9.73
2023-02-24T02:31:46.643Z,10.90
2023-02-24T02:34:40.015Z,12.43
2023-02-24T02:37:41.583Z,10.80
2023-02-24T02:40:21.786Z,13.30
2023-02-24T02:43:02.538Z,11.83
2023-02-24T02:45:47.789Z,11.80
2023-02-24T02:48:25.795Z,11.93
2023-02-24T02:50:55.698Z,12.17
2023-02-24T02:53:41.164Z,10.67
2023-02-24T02:56:16.465Z,27.53
2023-02-24T02:58:48.808Z,15.60
2023-02-24T03:01:21.005Z,16.93
2023-02-24T03:03:53.704Z,17.00
2023-02-24T03:06:28.756Z,16.43
2023-02-24T03:09:18.018Z,18.40
2023-02-24T03:11:49.169Z,16.80
2023-02-24T03:14:19.011Z,16.20
2023-02-24T03:16:50.050Z,16.33
2023-02-24T03:19:21.432Z,15.90
2023-02-24T03:22:18.612Z,18.63
2023-02-24T03:24:46.109Z,19.10
2023-02-24T03:27:31.171Z,18.67
2023-02-24T03:30:15.952Z,18.23
2023-02-24T03:32:51.597Z,15.97
2023-02-24T03:35:29.561Z,14.70
2023-02-24T03:37:59.506Z,15.57
2023-02-24T03:40:33.328Z,17.93
2023-02-24T03:43:10.083Z,12.77
2023-02-24T03:45:38.533Z,13.23
2023-02-24T03:48:08.474Z,14.60
2023-02-24T03:50:38.088Z,15.93
2023-02-24T03:53:38.799Z,14.57
2023-02-24T03:56:40.574Z,19.93
2023-02-24T03:59:28.577Z,15.40
2023-02-24T04:02:02.516Z,17.27
2023-02-24T04:04:40.048Z,17.00
2023-02-24T04:07:37.033Z,14.70
2023-02-24T04:10:41.093Z,13.00
2023-02-24T04:13:35.201Z,16.07
2023-02-24T04:16:17.088Z,14.63
2023-02-24T04:18:51.085Z,12.33
2023-02-24T04:21:21.490Z,12.37
2023-02-24T04:23:49.943Z,12.90
2023-02-24T04:26:18.289Z,15.50
2023-02-24T04:28:48.635Z,12.90
2023-02-24T04:31:18.466Z,15.50
2023-02-24T04:33:50.523Z,13.33
2023-02-24T04:36:22.191Z,14.07
2023-02-24T04:38:49.672Z,14.00
2023-02-24T04:41:21.465Z,14.93
2023-02-24T04:43:50.898Z,12.63
2023-02-24T04:46:19.939Z,13.80
2023-02-24T04:48:46.924Z,14.47
2023-02-24T04:51:13.885Z,12.67
2023-02-24T04:53:40.968Z,10.30
2023-02-24T04:56:09.262Z,11.80
2023-02-24T04:58:38.924Z,9.27
2023-02-24T05:01:10.928Z,10.40
2023-02-24T05:03:42.361Z,9.97
2023-02-24T05:06:16.179Z,9.87
2023-02-24T05:08:43.650Z,10.03
2023-02-24T05:11:18.585Z,12.87
2023-02-24T05:13:46.198Z,19.57
2023-02-24T05:16:17.451Z,18.17
2023-02-24T05:18:44.838Z,18.87
2023-02-24T05:21:51.933Z,20.00
2023-02-24T05:24:19.086Z,21.20
2023-02-24T05:26:46.792Z,21.40
2023-02-24T05:29:14.348Z,19.30
2023-02-24T05:31:41.641Z,18.77
2023-02-24T05:34:08.885Z,17.70
2023-02-24T05:36:40.326Z,17.13
2023-02-24T05:39:08.140Z,15.23
2023-02-24T05:41:41.737Z,15.33
2023-02-24T05:44:12.475Z,15.97
2023-02-24T05:46:42.002Z,15.50
2023-02-24T05:49:14.972Z,16.50
2023-02-24T05:51:54.668Z,13.83
2023-02-24T05:54:33.125Z,13.90
2023-02-24T05:57:02.003Z,13.37
2023-02-24T05:59:33.095Z,13.07
2023-02-24T06:02:07.444Z,12.67
2023-02-24T06:04:51.189Z,13.30
2023-02-24T06:07:24.666Z,12.47
2023-02-24T06:09:58.944Z,13.20
2023-02-24T06:12:29.671Z,14.20
2023-02-24T06:14:58.197Z,13.13
2023-02-24T06:17:25.717Z,13.30
2023-02-24T06:19:53.958Z,11.97
2023-02-24T06:22:24.346Z,11.57
2023-02-24T06:24:54.226Z,13.53
2023-02-24T06:27:24.901Z,15.33
2023-02-24T06:29:54.193Z,17.57
2023-02-24T06:32:24.725Z,19.73
2023-02-24T06:34:52.363Z,17.63
2023-02-24T06:37:19.697Z,15.17
2023-02-24T06:39:46.595Z,18.27
2023-02-24T06:42:13.970Z,19.73
2023-02-24T06:44:41.530Z,20.83
2023-02-24T06:47:13.101Z,21.27
2023-02-24T06:49:40.849Z,23.17
2023-02-24T06:52:08.728Z,18.07
2023-02-24T06:54:36.242Z,18.23
2023-02-24T06:57:03.963Z,19.47
2023-02-24T06:59:32.305Z,18.00
2023-02-24T07:02:02.130Z,17.93
2023-02-24T07:04:29.665Z,15.90
2023-02-24T07:07:03.062Z,21.93
2023-02-24T07:09:31.156Z,28.37
2023-02-24T07:11:58.994Z,19.80
2023-02-24T07:14:30.635Z,23.87
2023-02-24T07:16:58.521Z,18.47
2023-02-24T07:19:29.304Z,21.33
2023-02-24T07:22:02.215Z,20.97
2023-02-24T07:24:37.228Z,21.10
2023-02-24T07:27:08.237Z,20.57
2023-02-24T07:29:36.415Z,21.70
2023-02-24T07:32:06.058Z,24.73
2023-02-24T07:34:33.901Z,21.40
2023-02-24T07:37:06.712Z,26.63
2023-02-24T07:39:34.665Z,33.67
2023-02-24T07:42:01.815Z,35.13
2023-02-24T07:44:30.130Z,35.17
2023-02-24T07:46:59.244Z,40.47
2023-02-24T07:49:29.780Z,40.17
2023-02-24T07:51:58.126Z,39.63
2023-02-24T07:54:30.262Z,39.80
2023-02-24T07:56:59.589Z,46.10
2023-02-24T07:59:29.394Z,37.77
2023-02-24T08:01:56.763Z,41.13
2023-02-24T08:04:30.074Z,41.10
2023-02-24T08:06:59.125Z,41.00
2023-02-24T08:09:46.162Z,78.53
2023-02-24T08:12:22.799Z,78.93
2023-02-24T08:14:52.381Z,58.33
2023-02-24T08:17:26.511Z,43.97
2023-02-24T08:20:14.350Z,47.07
2023-02-24T08:22:52.184Z,43.43
2023-02-24T08:25:35.998Z,48.80
2023-02-24T08:28:08.815Z,44.73
2023-02-24T08:30:45.262Z,45.73
2023-02-24T08:33:23.185Z,56.63
2023-02-24T08:36:01.279Z,57.43
2023-02-24T08:38:39.801Z,69.90
2023-02-24T08:41:13.268Z,56.40
2023-02-24T08:43:41.056Z,56.10
2023-02-24T08:46:13.355Z,54.93
2023-02-24T08:48:43.115Z,47.23
2023-02-24T08:51:12.492Z,57.97
2023-02-24T08:53:40.707Z,59.60
2023-02-24T08:56:11.690Z,60.47
2023-02-24T08:58:47.287Z,61.17
2023-02-24T09:01:25.818Z,50.20
2023-02-24T09:03:58.970Z,44.47
2023-02-24T09:06:48.499Z,46.60
2023-02-24T09:09:23.468Z,53.47
2023-02-24T09:11:56.646Z,45.47
2023-02-24T09:14:29.902Z,50.63
2023-02-24T09:17:02.546Z,58.07
2023-02-24T09:20:01.482Z,54.33
2023-02-24T09:22:31.680Z,53.13
2023-02-24T09:25:21.195Z,60.80
2023-02-24T09:27:56.284Z,52.80
2023-02-24T09:30:39.092Z,49.53
2023-02-24T09:33:18.684Z,48.73
2023-02-24T09:35:46.863Z,61.50
2023-02-24T09:38:16.791Z,48.03
2023-02-24T09:40:54.584Z,52.73
2023-02-24T09:43:30.543Z,53.93
2023-02-24T09:46:16.893Z,48.77
2023-02-24T09:48:56.422Z,52.37
2023-02-24T09:51:25.734Z,51.60
2023-02-24T09:53:57.030Z,55.07
2023-02-24T09:57:01.176Z,53.23
2023-02-24T09:59:38.019Z,42.30
2023-02-24T10:02:39.535Z,37.57
2023-02-24T10:05:15.206Z,39.17
2023-02-24T10:07:43.954Z,34.47
2023-02-24T10:10:20.069Z,25.30
2023-02-24T10:12:58.400Z,25.03
2023-02-24T10:15:56.888Z,26.23
2023-02-24T10:18:29.162Z,25.67
2023-02-24T10:21:10.241Z,26.60
2023-02-24T10:24:05.720Z,27.03
2023-02-24T10:27:00.152Z,25.60
2023-02-24T10:30:05.008Z,25.07
2023-02-24T10:32:47.333Z,23.57
2023-02-24T10:35:16.856Z,27.97
2023-02-24T10:37:44.129Z,111.10
2023-02-24T10:40:13.071Z,38.77
2023-02-24T10:42:45.994Z,34.40
2023-02-24T10:45:26.548Z,28.50
2023-02-24T10:47:58.891Z,39.40
2023-02-24T10:50:25.757Z,37.07
2023-02-24T10:53:03.146Z,41.33
2023-02-24T10:55:48.624Z,30.40
2023-02-24T10:58:38.027Z,32.73
2023-02-24T11:01:40.429Z,29.17
2023-02-24T11:04:33.141Z,28.63
2023-02-24T11:07:12.053Z,29.90
2023-02-24T11:09:53.191Z,34.37
2023-02-24T11:12:44.499Z,33.60
2023-02-24T11:15:38.722Z,33.40
2023-02-24T11:18:10.572Z,35.47
2023-02-24T11:20:49.697Z,25.67
2023-02-24T11:23:27.423Z,29.50
2023-02-24T11:26:19.228Z,29.37
2023-02-24T11:29:13.265Z,34.83
2023-02-24T11:31:49.445Z,34.93
2023-02-24T11:34:27.602Z,28.53
2023-02-24T11:37:27.161Z,30.57
2023-02-24T11:40:06.046Z,32.20
2023-02-24T11:42:51.637Z,34.50
2023-02-24T11:45:33.897Z,32.10
2023-02-24T11:48:15.280Z,30.87
2023-02-24T11:50:53.977Z,30.37
2023-02-24T11:53:35.696Z,29.23
2023-02-24T11:56:37.370Z,32.00
2023-02-24T11:59:16.207Z,29.43
2023-02-24T12:01:58.187Z,30.83
2023-02-24T12:04:38.326Z,27.30
2023-02-24T12:07:10.056Z,29.60
2023-02-24T12:09:50.356Z,30.80
2023-02-24T12:12:28.667Z,31.90
2023-02-24T12:15:03.737Z,28.57
2023-02-24T12:17:59.145Z,23.57
2023-02-24T12:20:37.158Z,24.37
2023-02-24T12:23:26.035Z,28.20
2023-02-24T12:26:24.081Z,26.27
2023-02-24T12:29:42.237Z,28.07
2023-02-24T12:32:27.440Z,28.80
2023-02-24T12:35:00.260Z,29.90
2023-02-24T12:38:04.017Z,26.90
2023-02-24T12:40:45.807Z,25.00
2023-02-24T12:43:37.042Z,26.37
2023-02-24T12:46:27.337Z,33.03
2023-02-24T12:48:54.227Z,27.20
2023-02-24T12:51:41.395Z,30.73
2023-02-24T12:54:26.012Z,27.33
2023-02-24T12:57:37.235Z,25.27
2023-02-24T13:00:21.104Z,28.97
2023-02-24T13:03:05.503Z,29.07
2023-02-24T13:05:48.739Z,33.57
2023-02-24T13:08:50.520Z,35.20
2023-02-24T13:11:38.414Z,34.77
2023-02-24T13:14:25.059Z,27.97
2023-02-24T13:17:02.657Z,27.80
2023-02-24T13:19:30.564Z,30.67
2023-02-24T13:22:04.786Z,27.60
2023-02-24T13:24:32.134Z,31.60
2023-02-24T13:27:30.149Z,29.30
2023-02-24T13:30:08.256Z,27.53
2023-02-24T13:32:44.990Z,31.83
2023-02-24T13:35:14.975Z,27.07
2023-02-24T13:37:47.443Z,35.93
2023-02-24T13:40:22.314Z,27.00
2023-02-24T13:42:58.880Z,30.57
2023-02-24T13:45:29.777Z,29.53
2023-02-24T13:48:22.151Z,24.93
2023-02-24T13:51:01.106Z,26.83
2023-02-24T13:54:05.340Z,28.80
2023-02-24T13:57:01.864Z,30.77
2023-02-24T13:59:57.754Z,23.53
2023-02-24T14:02:30.099Z,23.60
2023-02-24T14:05:01.064Z,30.50
2023-02-24T14:07:32.357Z,24.33
2023-02-24T14:10:05.183Z,22.13
2023-02-24T14:12:35.292Z,24.00
2023-02-24T14:15:04.263Z,28.00
2023-02-24T14:17:36.317Z,30.27
2023-02-24T14:20:21.704Z,28.53
2023-02-24T14:22:53.233Z,27.53
2023-02-24T14:25:22.873Z,23.53
2023-02-24T14:27:52.714Z,26.00
2023-02-24T14:30:36.332Z,22.67
2023-02-24T14:33:05.301Z,29.57
2023-02-24T14:35:39.267Z,30.40
2023-02-24T14:38:06.582Z,28.97
2023-02-24T14:40:33.597Z,28.93
2023-02-24T14:43:00.660Z,21.60
2023-02-24T14:45:28.998Z,21.67
2023-02-24T14:47:56.982Z,23.97
2023-02-24T14:50:34.523Z,22.57
2023-02-24T14:53:12.170Z,26.30
2023-02-24T14:55:42.904Z,20.43
2023-02-24T14:58:16.001Z,23.47
2023-02-24T15:00:53.632Z,23.03
2023-02-24T15:04:00.753Z,23.53
2023-02-24T15:06:31.890Z,29.47
2023-02-24T15:09:06.250Z,26.60
2023-02-24T15:11:33.803Z,24.07
2023-02-24T15:14:07.563Z,26.83
2023-02-24T15:16:40.262Z,27.50
2023-02-24T15:19:33.444Z,20.90
2023-02-24T15:22:00.619Z,24.97
2023-02-24T15:24:33.179Z,26.87
2023-02-24T15:27:03.690Z,29.27
2023-02-24T15:29:31.500Z,30.27
2023-02-24T15:32:00.392Z,23.20
2023-02-24T15:34:34.982Z,25.43
2023-02-24T15:37:26.928Z,30.87
2023-02-24T15:40:06.288Z,25.53
2023-02-24T15:42:35.197Z,21.80
2023-02-24T15:45:05.682Z,32.53
2023-02-24T15:47:45.968Z,30.10
2023-02-24T15:50:14.217Z,22.17
2023-02-24T15:52:41.802Z,30.13
2023-02-24T15:55:11.630Z,24.37
2023-02-24T15:57:39.041Z,21.53
2023-02-24T16:00:13.251Z,26.83
2023-02-24T16:02:41.238Z,23.60
2023-02-24T16:05:12.554Z,30.23
2023-02-24T16:07:40.513Z,25.97
2023-02-24T16:10:09.799Z,25.37
2023-02-24T16:12:45.103Z,31.33
2023-02-24T16:15:19.014Z,27.97
2023-02-24T16:17:46.662Z,24.30
2023-02-24T16:20:15.209Z,30.87
2023-02-24T16:22:42.084Z,28.83
2023-02-24T16:25:11.988Z,23.53
2023-02-24T16:27:38.902Z,26.63
2023-02-24T16:30:06.926Z,30.60
2023-02-24T16:32:37.710Z,23.90
2023-02-24T16:35:08.319Z,23.30
2023-02-24T16:37:35.285Z,29.07
2023-02-24T16:40:02.530Z,33.47
2023-02-24T16:42:29.438Z,22.57
2023-02-24T16:44:56.319Z,25.93
2023-02-24T16:47:25.246Z,25.17
2023-02-24T16:49:56.276Z,28.97
2023-02-24T16:52:24.927Z,30.37
2023-02-24T16:54:52.016Z,29.40
2023-02-24T16:57:18.945Z,26.07
2023-02-24T16:59:45.817Z,29.57
2023-02-24T17:02:22.600Z,28.33
2023-02-24T17:04:49.461Z,24.30
2023-02-24T17:07:17.607Z,28.90
2023-02-24T17:09:44.648Z,25.33
2023-02-24T17:12:13.453Z,31.23
2023-02-24T17:14:40.402Z,25.77
2023-02-24T17:17:07.311Z,23.50
2023-02-24T17:19:34.257Z,24.27
2023-02-24T17:22:01.141Z,25.83
2023-02-24T17:24:29.004Z,27.20
2023-02-24T17:27:00.522Z,23.33
2023-02-24T17:29:27.889Z,22.57
2023-02-24T17:31:54.975Z,22.00
2023-02-24T17:34:24.026Z,25.30
2023-02-24T17:36:50.988Z,23.63
2023-02-24T17:39:17.956Z,25.20
2023-02-24T17:41:44.979Z,22.20
2023-02-24T17:44:11.968Z,29.53
2023-02-24T17:46:39.007Z,22.87
2023-02-24T17:49:06.028Z,22.77
2023-02-24T17:51:33.012Z,26.97
2023-02-24T17:53:59.909Z,31.23
2023-02-24T17:56:26.894Z,23.60
2023-02-24T17:58:58.692Z,21.57
2023-02-24T18:01:26.229Z,29.20
2023-02-24T18:03:55.407Z,28.50
2023-02-24T18:06:22.520Z,22.80
2023-02-24T18:08:49.632Z,22.90
2023-02-24T18:11:19.377Z,30.53
2023-02-24T18:13:48.141Z,20.63
2023-02-24T18:16:16.349Z,20.80
2023-02-24T18:18:43.436Z,24.67
2023-02-24T18:21:10.514Z,24.37
2023-02-24T18:23:40.421Z,23.37
2023-02-24T18:26:09.814Z,20.27
2023-02-24T18:28:37.855Z,24.47
2023-02-24T18:31:17.453Z,26.47
2023-02-24T18:33:45.345Z,20.03
2023-02-24T18:36:12.573Z,22.90
2023-02-24T18:38:39.992Z,19.90
2023-02-24T18:41:14.125Z,29.13
2023-02-24T18:43:41.422Z,20.93
2023-02-24T18:46:12.433Z,22.20
2023-02-24T18:48:44.660Z,26.77
2023-02-24T18:51:17.283Z,26.60
2023-02-24T18:53:44.212Z,27.57
2023-02-24T18:56:16.665Z,19.73
2023-02-24T18:58:45.679Z,26.10
2023-02-24T19:01:21.391Z,23.37
2023-02-24T19:03:50.294Z,28.47
2023-02-24T19:06:21.531Z,23.27
2023-02-24T19:08:55.219Z,26.87
2023-02-24T19:11:22.090Z,20.10
2023-02-24T19:13:48.937Z,25.27
2023-02-24T19:16:17.193Z,22.77
2023-02-24T19:18:44.792Z,25.27
2023-02-24T19:21:11.698Z,21.50
2023-02-24T19:23:38.593Z,24.10
2023-02-24T19:26:07.212Z,23.20
2023-02-24T19:28:34.152Z,23.60
2023-02-24T19:31:01.123Z,22.97
2023-02-24T19:33:28.044Z,25.73
2023-02-24T19:35:59.673Z,22.47
2023-02-24T19:38:26.613Z,24.60
2023-02-24T19:40:53.463Z,23.30
2023-02-24T19:43:20.326Z,26.83
2023-02-24T19:45:47.262Z,23.63
2023-02-24T19:48:14.115Z,26.23
2023-02-24T19:50:41.765Z,22.70
2023-02-24T19:53:08.993Z,30.87
2023-02-24T19:55:35.957Z,22.90
2023-02-24T19:58:02.978Z,22.57
2023-02-24T20:00:30.344Z,25.50
2023-02-24T20:02:57.317Z,21.87
2023-02-24T20:05:25.084Z,18.90
2023-02-24T20:07:51.987Z,30.00
2023-02-24T20:10:19.511Z,18.90
2023-02-24T20:12:46.434Z,18.80
2023-02-24T20:15:13.354Z,25.90
2023-02-24T20:17:40.175Z,20.93
2023-02-24T20:20:07.849Z,21.40
2023-02-24T20:22:34.712Z,21.27
2023-02-24T20:25:01.589Z,22.27
2023-02-24T20:27:28.539Z,22.30
2023-02-24T20:29:56.588Z,18.40
2023-02-24T20:32:23.860Z,21.70
2023-02-24T20:34:50.959Z,22.60
2023-02-24T20:37:17.888Z,19.67
2023-02-24T20:39:45.062Z,21.30
2023-02-24T20:42:12.518Z,14.37
2023-02-24T20:44:39.375Z,10.80
2023-02-24T20:47:06.306Z,12.93
2023-02-24T20:49:33.138Z,14.60
2023-02-24T20:52:00.017Z,11.90
2023-02-24T20:54:26.907Z,15.33
2023-02-24T20:56:55.104Z,6.67
2023-02-24T20:59:22.727Z,8.97
2023-02-24T21:01:50.438Z,7.37
2023-02-24T21:04:20.585Z,6.57
2023-02-24T21:06:48.194Z,7.53
2023-02-24T21:09:16.039Z,5.73
2023-02-24T21:11:43.102Z,6.63
2023-02-24T21:14:15.301Z,4.70
2023-02-24T21:16:42.161Z,4.57
2023-02-24T21:19:09.169Z,7.93
2023-02-24T21:21:36.065Z,6.60
2023-02-24T21:24:02.928Z,4.57
2023-02-24T21:26:29.895Z,4.20
2023-02-24T21:28:57.992Z,4.17
2023-02-24T21:31:26.273Z,3.73
2023-02-24T21:33:54.010Z,3.17
2023-02-24T21:36:23.824Z,4.10
2023-02-24T21:38:51.208Z,2.47
2023-02-24T21:41:21.391Z,3.10
2023-02-24T21:43:57.137Z,3.13
2023-02-24T21:46:28.537Z,2.20
2023-02-24T21:48:59.578Z,4.17
2023-02-24T21:51:28.074Z,3.23
2023-02-24T21:53:56.851Z,2.53
2023-02-24T21:56:26.900Z,4.60
2023-02-24T21:59:01.595Z,3.93
2023-02-24T22:01:31.735Z,2.73
2023-02-24T22:04:01.536Z,2.57
2023-02-24T22:06:31.737Z,2.37
2023-02-24T22:08:59.551Z,2.83
2023-02-24T22:11:26.917Z,2.27
2023-02-24T22:13:53.900Z,2.17
2023-02-24T22:16:23.465Z,2.27
2023-02-24T22:18:51.793Z,3.13
2023-02-24T22:21:21.314Z,2.30
2023-02-24T22:23:51.694Z,2.30
2023-02-24T22:26:20.272Z,2.17
2023-02-24T22:28:47.578Z,1.87
2023-02-24T22:31:17.748Z,1.70
2023-02-24T22:33:45.182Z,1.70
2023-02-24T22:36:15.315Z,3.00
2023-02-24T22:38:43.564Z,4.03
2023-02-24T22:41:16.762Z,4.13
2023-02-24T22:43:44.093Z,4.57
2023-02-24T22:46:14.160Z,2.67
2023-02-24T22:48:41.356Z,2.60
2023-02-24T22:51:10.307Z,2.20
2023-02-24T22:53:39.136Z,3.37
2023-02-24T22:56:06.912Z,2.03
2023-02-24T22:58:33.889Z,4.57
2023-02-24T23:01:00.903Z,5.33
2023-02-24T23:03:33.233Z,5.03
2023-02-24T23:06:05.439Z,2.97
2023-02-24T23:08:36.385Z,4.83
2023-02-24T23:11:12.775Z,2.37
2023-02-24T23:13:41.743Z,3.83
2023-02-24T23:16:11.322Z,2.27
2023-02-24T23:18:38.337Z,2.97
2023-02-24T23:21:09.343Z,2.80
2023-02-24T23:23:37.437Z,3.97
2023-02-24T23:26:05.586Z,3.40
2023-02-24T23:28:32.657Z,3.70
2023-02-24T23:30:59.908Z,3.73
2023-02-24T23:33:26.856Z,2.87
2023-02-24T23:35:53.818Z,3.13
2023-02-24T23:38:20.902Z,4.73
2023-02-24T23:40:50.604Z,3.40
2023-02-24T23:43:18.192Z,6.07
2023-02-24T23:45:45.571Z,4.90
2023-02-24T23:48:14.069Z,5.40
2023-02-24T23:50:42.459Z,6.97
2023-02-24T23:53:10.118Z,3.33
2023-02-24T23:55:40.790Z,5.03
2023-02-24T23:58:08.103Z,8.77
